Terminal Aerodrome Forecast
Issued by NWS Wilmington, NC

Current Version | Previous Version | Graphics & Text | Print | Product List | Glossary Off
Versions: 1 2 3 4 5 6 7 8 9 10 11 12 13 14 15 16 17 18 19 20 21 22 23 24 25

000
FTUS42 KILM 131721
TAFLBT
TAF
KLBT 131721Z 1318/1418 21005KT P6SM VCTS SCT025CB
      TEMPO 1318/1322 2SM TSRA BKN015CB
     FM140000 18004KT P6SM BKN080
     FM140700 17004KT 3SM BR BKN010
     FM141300 VRB03KT P6SM BKN035
     FM141700 20005KT P6SM VCTS BKN045CB
     AMD NOT SKED=

USA.gov is the U.S. government's official web portal to all federal, state and local government web resources and services.